createdAt,value
2023-07-14T00:00:27.853Z,100725.38
2023-07-14T00:03:55.730Z,100724.19
2023-07-14T00:07:23.762Z,100721.25
2023-07-14T00:10:11.940Z,100707.37
2023-07-14T00:13:19.445Z,100686.41
2023-07-14T00:16:47.284Z,100662.60
2023-07-14T00:20:14.879Z,100659.69
2023-07-14T00:23:43.001Z,100630.08
2023-07-14T00:26:35.495Z,100627.17
2023-07-14T00:30:04.365Z,100615.08
2023-07-14T00:33:32.114Z,100602.83
2023-07-14T00:36:36.796Z,100599.13
2023-07-14T00:39:44.758Z,100584.37
2023-07-14T00:42:14.276Z,100575.71
2023-07-14T00:45:22.069Z,100569.16
2023-07-14T00:48:50.016Z,100554.34
2023-07-14T00:51:39.607Z,100548.85
2023-07-14T00:54:51.076Z,100535.03
2023-07-14T00:57:59.526Z,100522.80
2023-07-14T01:01:02.972Z,100510.89
2023-07-14T01:04:12.384Z,100496.31
2023-07-14T01:07:04.191Z,100486.56
2023-07-14T01:09:41.435Z,100471.05
2023-07-14T01:13:04.714Z,100450.58
2023-07-14T01:16:12.827Z,100466.84
2023-07-14T01:19:21.612Z,100476.20
2023-07-14T01:22:32.992Z,100479.13
2023-07-14T01:25:42.614Z,100466.20
2023-07-14T01:29:10.051Z,100448.05
2023-07-14T01:32:37.761Z,100438.61
2023-07-14T01:36:05.468Z,100452.02
2023-07-14T01:39:13.122Z,100454.95
2023-07-14T01:42:22.081Z,100449.16
2023-07-14T01:45:49.884Z,100446.15
2023-07-14T01:49:01.534Z,100457.20
2023-07-14T01:52:17.146Z,100459.38
2023-07-14T01:55:44.835Z,100460.89
2023-07-14T01:58:52.100Z,100466.94
2023-07-14T02:02:19.761Z,100471.29
2023-07-14T02:05:47.206Z,100479.83
2023-07-14T02:09:14.712Z,100484.14
2023-07-14T02:12:42.365Z,100491.65
2023-07-14T02:15:51.708Z,100490.26
2023-07-14T02:19:19.160Z,100489.42
2023-07-14T02:22:46.716Z,100494.99
2023-07-14T02:26:14.181Z,100504.64
2023-07-14T02:29:41.761Z,100515.23
2023-07-14T02:33:09.317Z,100517.70
2023-07-14T02:36:36.781Z,100522.38
2023-07-14T02:40:04.321Z,100531.27
2023-07-14T02:43:31.992Z,100540.54
2023-07-14T02:46:59.656Z,100547.02
2023-07-14T02:50:27.232Z,100553.27
2023-07-14T02:53:50.446Z,100559.14
2023-07-14T02:56:42.030Z,100555.42
2023-07-14T03:00:09.680Z,100558.08
2023-07-14T03:03:18.676Z,100569.28
2023-07-14T03:06:47.733Z,100576.69
2023-07-14T03:10:13.608Z,100579.18
2023-07-14T03:13:23.599Z,100578.59
2023-07-14T03:16:51.447Z,100581.96
2023-07-14T03:19:50.223Z,100584.73
2023-07-14T03:23:17.813Z,100579.91
2023-07-14T03:26:45.481Z,100585.82
2023-07-14T03:30:12.999Z,100588.33
2023-07-14T03:33:21.462Z,100590.19
2023-07-14T03:36:48.976Z,100580.40
2023-07-14T03:39:36.868Z,100582.07
2023-07-14T03:42:42.117Z,100585.21
2023-07-14T03:45:57.938Z,100581.14
2023-07-14T03:48:55.230Z,100582.83
2023-07-14T03:52:03.940Z,100578.90
2023-07-14T03:55:07.646Z,100577.39
2023-07-14T03:58:14.492Z,100576.33
2023-07-14T04:01:05.818Z,100568.12
2023-07-14T04:04:17.293Z,100567.16
2023-07-14T04:07:08.963Z,100566.85
2023-07-14T04:10:00.965Z,100568.37
2023-07-14T04:13:28.521Z,100577.50
2023-07-14T04:16:56.429Z,100587.44
2023-07-14T04:19:46.450Z,100600.86
2023-07-14T04:22:58.263Z,100596.45
2023-07-14T04:26:22.016Z,100607.83
2023-07-14T04:29:49.433Z,100611.17
2023-07-14T04:33:17.118Z,100608.50
2023-07-14T04:36:44.677Z,100608.96
2023-07-14T04:39:53.131Z,100618.18
2023-07-14T04:43:04.609Z,100621.20
2023-07-14T04:46:14.636Z,100618.79
2023-07-14T04:49:24.209Z,100618.76
2023-07-14T04:52:31.859Z,100619.19
2023-07-14T04:55:41.413Z,100620.09
2023-07-14T04:59:09.263Z,100623.17
2023-07-14T05:02:16.845Z,100623.73
2023-07-14T05:05:24.766Z,100629.27
2023-07-14T05:08:33.318Z,100629.48
2023-07-14T05:12:01.050Z,100631.79
2023-07-14T05:15:09.474Z,100639.84
2023-07-14T05:18:17.048Z,100642.46
2023-07-14T05:21:44.718Z,100645.01
2023-07-14T05:25:12.164Z,100647.16
2023-07-14T05:28:00.711Z,100653.33
2023-07-14T05:31:28.206Z,100652.10
2023-07-14T05:34:55.845Z,100653.68
2023-07-14T05:38:23.650Z,100649.02
2023-07-14T05:41:31.298Z,100654.95
2023-07-14T05:44:39.447Z,100660.50
2023-07-14T05:47:48.409Z,100666.03
2023-07-14T05:50:57.721Z,100667.55
2023-07-14T05:54:21.880Z,100667.23
2023-07-14T05:57:11.302Z,100677.09
2023-07-14T06:00:19.679Z,100677.40
2023-07-14T06:02:49.218Z,100682.31
2023-07-14T06:05:22.561Z,100680.13
2023-07-14T06:08:50.097Z,100683.84
2023-07-14T06:12:17.624Z,100688.12
2023-07-14T06:15:15.364Z,100691.75
2023-07-14T06:18:17.505Z,100695.95
2023-07-14T06:21:45.274Z,100703.75
2023-07-14T06:24:54.896Z,100704.06
2023-07-14T06:27:44.364Z,100702.90
2023-07-14T06:30:33.369Z,100704.27
2023-07-14T06:33:21.802Z,100707.48
2023-07-14T06:36:45.735Z,100704.05
2023-07-14T06:39:17.613Z,100702.48
2023-07-14T06:42:33.109Z,100700.02
2023-07-14T06:45:23.996Z,100699.83
2023-07-14T06:48:31.861Z,100706.88
2023-07-14T06:51:52.844Z,100704.58
2023-07-14T06:54:42.722Z,100707.23
2023-07-14T06:57:39.467Z,100707.80
2023-07-14T07:00:25.145Z,100709.06
2023-07-14T07:02:58.807Z,100709.08
2023-07-14T07:05:56.567Z,100710.95
2023-07-14T07:08:47.493Z,100707.98
2023-07-14T07:11:37.649Z,100713.09
2023-07-14T07:14:07.267Z,100715.84
2023-07-14T07:17:15.466Z,100722.60
2023-07-14T07:20:24.202Z,100720.80
2023-07-14T07:23:33.052Z,100722.37
2023-07-14T07:26:04.650Z,100723.67
2023-07-14T07:29:16.196Z,100722.63
2023-07-14T07:32:27.718Z,100725.23
2023-07-14T07:35:19.641Z,100724.39
2023-07-14T07:38:08.329Z,100724.73
2023-07-14T07:41:16.146Z,100730.88
2023-07-14T07:44:43.866Z,100738.58
2023-07-14T07:47:32.465Z,100745.22
2023-07-14T07:50:20.373Z,100744.42
2023-07-14T07:53:47.919Z,100745.09
2023-07-14T07:56:55.749Z,100742.41
2023-07-14T07:59:44.021Z,100744.11
2023-07-14T08:02:51.784Z,100742.80
2023-07-14T08:05:24.648Z,100739.98
2023-07-14T08:08:02.554Z,100745.35
2023-07-14T08:11:25.766Z,100740.79
2023-07-14T08:14:33.741Z,100741.30
2023-07-14T08:17:42.316Z,100733.29
2023-07-14T08:20:27.982Z,100736.16
2023-07-14T08:23:35.976Z,100733.29
2023-07-14T08:26:29.674Z,100732.20
2023-07-14T08:29:37.760Z,100733.73
2023-07-14T08:32:45.523Z,100734.64
2023-07-14T08:35:15.145Z,100737.55
2023-07-14T08:38:23.079Z,100737.00
2023-07-14T08:41:11.970Z,100744.00
2023-07-14T08:44:00.052Z,100742.95
2023-07-14T08:46:50.727Z,100745.22
2023-07-14T08:49:38.980Z,100743.69
2023-07-14T08:52:26.838Z,100742.92
2023-07-14T08:55:35.467Z,100739.38
2023-07-14T08:58:25.451Z,100735.36
2023-07-14T09:01:14.237Z,100734.42
2023-07-14T09:04:07.747Z,100739.08
2023-07-14T09:06:37.300Z,100740.56
2023-07-14T09:09:45.479Z,100739.94
2023-07-14T09:12:53.156Z,100741.05
2023-07-14T09:16:00.841Z,100737.16
2023-07-14T09:18:33.088Z,100738.90
2023-07-14T09:21:23.794Z,100731.11
2023-07-14T09:24:11.537Z,100735.60
2023-07-14T09:27:00.675Z,100734.77
2023-07-14T09:29:31.863Z,100732.73
2023-07-14T09:32:39.540Z,100731.48
2023-07-14T09:35:10.055Z,100728.87
2023-07-14T09:37:59.205Z,100723.18
2023-07-14T09:40:47.852Z,100722.70
2023-07-14T09:43:36.401Z,100725.64
2023-07-14T09:46:24.520Z,100726.14
2023-07-14T09:49:52.163Z,100725.53
2023-07-14T09:53:00.529Z,100720.85
2023-07-14T09:56:10.000Z,100715.95
2023-07-14T09:59:17.803Z,100719.02
2023-07-14T10:02:45.540Z,100719.05
2023-07-14T10:05:40.983Z,100718.58
2023-07-14T10:08:48.645Z,100719.50
2023-07-14T10:11:36.381Z,100711.64
2023-07-14T10:14:52.122Z,100704.10
2023-07-14T10:18:19.948Z,100700.65
2023-07-14T10:21:27.687Z,100697.85
2023-07-14T10:24:55.193Z,100695.46
2023-07-14T10:28:22.743Z,100694.99
2023-07-14T10:31:12.398Z,100698.28
2023-07-14T10:33:41.610Z,100693.83
2023-07-14T10:36:49.997Z,100694.95
2023-07-14T10:40:17.796Z,100689.92
2023-07-14T10:42:51.038Z,100688.00
2023-07-14T10:45:59.221Z,100683.14
2023-07-14T10:48:47.781Z,100681.52
2023-07-14T10:51:55.705Z,100681.95
2023-07-14T10:55:07.606Z,100677.27
2023-07-14T10:58:16.658Z,100669.99
2023-07-14T11:00:46.964Z,100666.77
2023-07-14T11:03:35.053Z,100661.45
2023-07-14T11:07:02.782Z,100659.50
2023-07-14T11:09:51.428Z,100653.67
2023-07-14T11:13:19.033Z,100656.02
2023-07-14T11:16:46.767Z,100648.96
2023-07-14T11:19:45.939Z,100651.48
2023-07-14T11:22:23.659Z,100650.40
2023-07-14T11:25:31.083Z,100649.92
2023-07-14T11:28:58.676Z,100641.46
2023-07-14T11:32:10.680Z,100643.62
2023-07-14T11:35:38.243Z,100639.92
2023-07-14T11:39:05.827Z,100635.16
2023-07-14T11:42:17.687Z,100632.73
2023-07-14T11:45:45.417Z,100637.39
2023-07-14T11:48:14.883Z,100635.71
2023-07-14T11:51:23.954Z,100636.10
2023-07-14T11:53:52.353Z,100632.75
2023-07-14T11:57:07.966Z,100632.66
2023-07-14T12:00:35.407Z,100632.30
2023-07-14T12:03:33.140Z,100632.39
2023-07-14T12:06:12.731Z,100636.05
2023-07-14T12:09:02.342Z,100635.34
2023-07-14T12:12:30.006Z,100636.75
2023-07-14T12:15:25.378Z,100630.89
2023-07-14T12:18:32.730Z,100634.27
2023-07-14T12:21:21.869Z,100633.28
2023-07-14T12:24:10.530Z,100630.37
2023-07-14T12:27:38.276Z,100629.41
2023-07-14T12:30:46.193Z,100628.25
2023-07-14T12:33:53.976Z,100626.38
2023-07-14T12:36:25.935Z,100621.23
2023-07-14T12:38:55.391Z,100621.27
2023-07-14T12:41:45.824Z,100621.61
2023-07-14T12:44:13.573Z,100624.08
2023-07-14T12:46:43.203Z,100618.64
2023-07-14T12:49:31.986Z,100616.20
2023-07-14T12:52:19.890Z,100613.09
2023-07-14T12:55:28.470Z,100613.84
2023-07-14T12:58:01.947Z,100614.63
2023-07-14T13:00:50.901Z,100609.15
2023-07-14T13:04:00.437Z,100606.00
2023-07-14T13:07:28.103Z,100602.28
2023-07-14T13:10:36.129Z,100599.00
2023-07-14T13:13:07.161Z,100593.31
2023-07-14T13:16:15.062Z,100592.28
2023-07-14T13:19:22.888Z,100594.34
2023-07-14T13:22:30.791Z,100587.71
2023-07-14T13:25:00.780Z,100589.63
2023-07-14T13:27:31.499Z,100584.98
2023-07-14T13:30:20.130Z,100583.19
2023-07-14T13:33:15.480Z,100579.73
2023-07-14T13:36:30.572Z,100585.02
2023-07-14T13:39:42.474Z,100585.89
2023-07-14T13:43:10.272Z,100582.75
2023-07-14T13:45:38.125Z,100578.91
2023-07-14T13:48:29.918Z,100576.26
2023-07-14T13:51:33.826Z,100571.63
2023-07-14T13:54:41.579Z,100567.20
2023-07-14T13:57:10.296Z,100570.11
2023-07-14T14:00:17.748Z,100573.97
2023-07-14T14:02:45.506Z,100565.89
2023-07-14T14:05:49.705Z,100567.30
2023-07-14T14:08:38.144Z,100564.44
2023-07-14T14:11:26.824Z,100561.61
2023-07-14T14:14:34.388Z,100555.70
2023-07-14T14:17:05.894Z,100552.95
2023-07-14T14:19:35.126Z,100551.66
2023-07-14T14:22:02.974Z,100555.11
2023-07-14T14:24:54.178Z,100546.31
2023-07-14T14:27:41.839Z,100550.42
2023-07-14T14:30:11.134Z,100542.17
2023-07-14T14:32:59.090Z,100540.84
2023-07-14T14:35:31.466Z,100534.13
2023-07-14T14:38:45.934Z,100534.06
2023-07-14T14:41:58.260Z,100531.49
2023-07-14T14:44:46.026Z,100527.73
2023-07-14T14:48:14.989Z,100520.65
2023-07-14T14:50:45.218Z,100521.16
2023-07-14T14:54:12.749Z,100521.23
2023-07-14T14:57:03.341Z,100524.23
2023-07-14T15:00:14.750Z,100524.21
2023-07-14T15:03:23.220Z,100527.88
2023-07-14T15:05:53.019Z,100530.16
2023-07-14T15:09:01.470Z,100534.05
2023-07-14T15:11:50.678Z,100536.91
2023-07-14T15:14:20.817Z,100531.11
2023-07-14T15:17:09.058Z,100528.45
2023-07-14T15:19:36.824Z,100530.46
2023-07-14T15:22:05.380Z,100524.80
2023-07-14T15:24:53.507Z,100529.63
2023-07-14T15:27:21.903Z,100534.26
2023-07-14T15:29:49.666Z,100534.00
2023-07-14T15:32:17.330Z,100536.25
2023-07-14T15:34:45.392Z,100533.17
2023-07-14T15:37:51.205Z,100530.77
2023-07-14T15:40:18.850Z,100528.38
2023-07-14T15:42:48.888Z,100527.56
2023-07-14T15:45:17.422Z,100520.60
2023-07-14T15:48:39.931Z,100525.56
2023-07-14T15:51:37.528Z,100525.69
2023-07-14T15:54:25.224Z,100524.45
2023-07-14T15:57:40.760Z,100521.40
2023-07-14T16:00:44.426Z,100519.67
2023-07-14T16:03:12.109Z,100515.25
2023-07-14T16:05:45.143Z,100512.42
2023-07-14T16:08:30.392Z,100510.51
2023-07-14T16:10:58.735Z,100511.27
2023-07-14T16:13:48.396Z,100513.55
2023-07-14T16:16:32.446Z,100507.69
2023-07-14T16:19:01.369Z,100506.17
2023-07-14T16:21:51.187Z,100506.50
2023-07-14T16:24:19.351Z,100504.96
2023-07-14T16:27:07.659Z,100501.30
2023-07-14T16:30:15.405Z,100502.97
2023-07-14T16:32:44.193Z,100500.61
2023-07-14T16:35:52.286Z,100505.52
2023-07-14T16:38:59.986Z,100512.30
2023-07-14T16:41:27.689Z,100510.08
2023-07-14T16:44:35.301Z,100509.31
2023-07-14T16:48:03.082Z,100515.23
2023-07-14T16:51:11.027Z,100520.21
2023-07-14T16:54:38.708Z,100522.14
2023-07-14T16:57:07.181Z,100520.07
2023-07-14T17:00:14.988Z,100519.36
2023-07-14T17:02:43.802Z,100515.22
2023-07-14T17:05:32.275Z,100511.41
2023-07-14T17:08:00.249Z,100518.08
2023-07-14T17:11:27.885Z,100521.02
2023-07-14T17:14:19.502Z,100516.98
2023-07-14T17:17:27.440Z,100513.56
2023-07-14T17:20:35.771Z,100512.61
2023-07-14T17:23:06.340Z,100514.77
2023-07-14T17:25:50.484Z,100513.80
2023-07-14T17:28:58.462Z,100506.70
2023-07-14T17:31:27.605Z,100508.22
2023-07-14T17:34:36.531Z,100512.52
2023-07-14T17:38:04.345Z,100517.05
2023-07-14T17:40:55.630Z,100514.98
2023-07-14T17:43:26.622Z,100509.70
2023-07-14T17:46:54.183Z,100514.20
2023-07-14T17:50:02.067Z,100512.56
2023-07-14T17:52:40.159Z,100522.22
2023-07-14T17:56:07.609Z,100526.49
2023-07-14T17:59:35.062Z,100524.89
2023-07-14T18:02:44.893Z,100520.47
2023-07-14T18:05:13.432Z,100522.29
2023-07-14T18:08:21.398Z,100523.38
2023-07-14T18:11:29.735Z,100523.71
2023-07-14T18:13:58.466Z,100524.34
2023-07-14T18:16:27.731Z,100527.47
2023-07-14T18:19:16.349Z,100527.77
2023-07-14T18:22:21.378Z,100527.88
2023-07-14T18:25:48.935Z,100527.77
2023-07-14T18:28:18.890Z,100527.48
2023-07-14T18:31:28.708Z,100537.04
2023-07-14T18:34:56.360Z,100542.09
2023-07-14T18:37:27.324Z,100536.56
2023-07-14T18:40:35.934Z,100539.11
2023-07-14T18:43:24.141Z,100542.84
2023-07-14T18:46:14.017Z,100546.30
2023-07-14T18:49:13.201Z,100556.15
2023-07-14T18:52:08.645Z,100559.88
2023-07-14T18:54:37.213Z,100561.48
2023-07-14T18:57:26.554Z,100567.45
2023-07-14T19:00:36.601Z,100570.44
2023-07-14T19:03:44.274Z,100571.84
2023-07-14T19:06:33.073Z,100568.35
2023-07-14T19:09:25.504Z,100564.23
2023-07-14T19:12:37.011Z,100566.77
2023-07-14T19:15:44.642Z,100564.63
2023-07-14T19:18:13.478Z,100568.95
2023-07-14T19:21:06.340Z,100566.46
2023-07-14T19:24:14.170Z,100563.09
2023-07-14T19:26:52.441Z,100559.52
2023-07-14T19:29:41.238Z,100562.55
2023-07-14T19:33:05.342Z,100565.08
2023-07-14T19:36:14.803Z,100562.33
2023-07-14T19:38:45.333Z,100562.33
2023-07-14T19:41:19.095Z,100564.38
2023-07-14T19:44:46.796Z,100560.95
2023-07-14T19:47:36.226Z,100562.30
2023-07-14T19:50:45.698Z,100563.59
2023-07-14T19:53:14.196Z,100565.33
2023-07-14T19:56:04.699Z,100561.80
2023-07-14T19:59:14.360Z,100560.31
2023-07-14T20:02:23.120Z,100560.20
2023-07-14T20:05:30.751Z,100559.59
2023-07-14T20:08:21.090Z,100558.95
2023-07-14T20:10:58.609Z,100557.01
2023-07-14T20:13:27.891Z,100560.49
2023-07-14T20:16:27.261Z,100562.25
2023-07-14T20:19:35.759Z,100562.48
2023-07-14T20:22:28.486Z,100564.06
2023-07-14T20:25:36.197Z,100562.75
2023-07-14T20:28:24.196Z,100562.20
2023-07-14T20:31:32.141Z,100567.94
2023-07-14T20:34:09.423Z,100570.39
2023-07-14T20:36:57.633Z,100575.11
2023-07-14T20:39:34.021Z,100575.91
2023-07-14T20:42:39.835Z,100569.34
2023-07-14T20:45:09.049Z,100573.09
2023-07-14T20:47:56.923Z,100573.00
2023-07-14T20:50:45.148Z,100572.80
2023-07-14T20:53:41.307Z,100572.51
2023-07-14T20:56:29.008Z,100573.36
2023-07-14T20:59:36.936Z,100573.67
2023-07-14T21:02:25.618Z,100573.04
2023-07-14T21:05:03.094Z,100573.80
2023-07-14T21:07:52.653Z,100576.21
2023-07-14T21:11:00.288Z,100581.23
2023-07-14T21:13:32.998Z,100587.16
2023-07-14T21:16:09.232Z,100593.55
2023-07-14T21:19:16.919Z,100594.24
2023-07-14T21:22:25.081Z,100599.86
2023-07-14T21:25:17.456Z,100600.08
2023-07-14T21:28:25.958Z,100603.61
2023-07-14T21:31:14.381Z,100599.27
2023-07-14T21:34:24.379Z,100601.55
2023-07-14T21:37:39.807Z,100596.88
2023-07-14T21:40:17.263Z,100595.09
2023-07-14T21:43:13.946Z,100593.30
2023-07-14T21:46:18.661Z,100590.88
2023-07-14T21:49:08.195Z,100590.84
2023-07-14T21:51:56.452Z,100589.39
2023-07-14T21:54:53.149Z,100586.30
2023-07-14T21:57:41.906Z,100590.10
2023-07-14T22:00:40.709Z,100590.98
2023-07-14T22:03:30.196Z,100590.45
2023-07-14T22:06:33.514Z,100588.95
2023-07-14T22:09:44.911Z,100588.95
2023-07-14T22:12:35.090Z,100591.02
2023-07-14T22:15:27.838Z,100591.50
2023-07-14T22:18:45.077Z,100591.59
2023-07-14T22:21:24.743Z,100591.84
2023-07-14T22:24:34.549Z,100587.96
2023-07-14T22:27:34.959Z,100588.14
2023-07-14T22:30:44.419Z,100589.14
2023-07-14T22:33:33.312Z,100589.21
2023-07-14T22:36:25.608Z,100585.13
2023-07-14T22:39:54.525Z,100583.91
2023-07-14T22:42:58.134Z,100583.48
2023-07-14T22:46:07.817Z,100586.91
2023-07-14T22:48:58.461Z,100586.36
2023-07-14T22:51:47.895Z,100583.80
2023-07-14T22:54:17.657Z,100580.14
2023-07-14T22:57:13.768Z,100579.98
2023-07-14T23:00:23.301Z,100577.88
2023-07-14T23:03:28.195Z,100576.89
2023-07-14T23:06:36.760Z,100571.48
2023-07-14T23:09:25.542Z,100572.80
2023-07-14T23:12:17.538Z,100574.31
2023-07-14T23:14:51.915Z,100573.73
2023-07-14T23:18:19.508Z,100575.48
2023-07-14T23:21:10.303Z,100578.09
2023-07-14T23:24:01.628Z,100573.48
2023-07-14T23:26:53.539Z,100574.59
2023-07-14T23:29:49.898Z,100572.65
2023-07-14T23:32:40.277Z,100574.54
2023-07-14T23:35:29.702Z,100571.81
2023-07-14T23:38:37.794Z,100572.73
2023-07-14T23:41:33.262Z,100569.85
2023-07-14T23:45:00.943Z,100567.48
2023-07-14T23:48:12.702Z,100565.15
2023-07-14T23:51:18.091Z,100571.61
2023-07-14T23:53:48.646Z,100570.36
2023-07-14T23:56:35.540Z,100569.33
